Prescott, AZ

3:42 PM MST on August 29, 2014 (GMT -0700)
Prescott Heights | Change Station
CLOSE
Current Station
Personal Weather Station
Location: Prescott, AZ
Elevation: 5305 ft
Nearby Weather Stations

Elev 5305 ft 34.55 °N, 112.47 °W | Updated 1 second ago

Clear
Clear
83.5 °F
Feels Like 81 °F
N
1.0
Wind Variable Wind from East
Gusts 5.0 mph

Today
High -- | Low -- °F
--% Chance of Precip.
Yesterday
High -- | Low -- °F
Precip. -- in
6:00 AM 7:00 PM
Waxing Crescent, 17% visible
Pressure 29.85 in
Visibility 10.0 miles
Clouds Clear
Heat Index 81 °F
Dew Point 40 °F
Humidity 21%
Rainfall 0.00 in
Snow Depth Not available.
UV 8 out of 12
Pollen 6.70 out of 12
Air Quality Not available.
Flu Activity Not available.
METAR KPRC 292153Z VRB05KT 10SM CLR 30/05 A3009 RMK AO2 SLP107 T03000050

More Conditions Fewer Conditions

Pressure 29.85 in
Visibility 10.0 miles
Clouds Clear
Heat Index 81 °F
Dew Point 40 °F
Humidity 21%
Rainfall 0.00 in
Snow Depth Not available.
UV 8 out of 12
Pollen 6.70 out of 12
Air Quality Not available.
Flu Activity Not available.
METAR KPRC 292153Z VRB05KT 10SM CLR 30/05 A3009 RMK AO2 SLP107 T03000050

More Conditions Fewer Conditions

10-Day Weather Forecast

Almanac

Astronomy

Aug. 29, 2014 Rise Set
Actual Time 6:00 AM MST 7:00 PM MST
Civil Twilight 5:35 AM MST 7:25 PM MST
Nautical Twilight 5:04 AM MST 7:56 PM MST
Astronomical Twilight 4:32 AM MST 8:27 PM MST
Moon 9:42 AM MST 9:12 PM MST
Length of Visible Light 13h 50m
Length of Day
12h 59m
Tomorrow will be 2m 3s shorter.
Waxing Crescent, 17% of the Moon is Illuminated
Today
Waxing Crescent
Sep 2
First Quarter
Sep 8
Full
Sep 15
Last Quarter
Sep 24
New

Today's Extremes

State Highs State Lows

Community

WunderPhotos

Upload Photos

1,748,363 photos uploaded!

Nearby

Snow Depth

Station Depth Elevation
Workman Creek 0 in 6900 ft
Beaver Head 9 in 7990 ft

Earthquake Activity

City Distance Mag. Time & Date
No recent earthquake activity has been reported nearby.
Minimum magnitude displayed is 2.5.

Coastal Water Temperatures

Place Temperature
No Stations Reporting

Nearby Weather Stations